.
WxDataArchive / Data Records for 2014-05-15
2014-05-14 May 2014 2014-05-16

Data Records for Thursday, 15 May 2014

Time	Temp	Chill	HIndex	Humid	Dewpt	 Wind 	HiWind	WindDir	Rain 	Barom
-----	----	-----	------	-----	-----	------	------	-------	-----	-----
00:00	53.2	53.2	53.2	96	52.1	1	4	112	0.01	29.823 
00:05	53.3	53.3	53.3	96	52.2	1	5	158	0.01	29.823 
00:10	53.5	53.5	53.5	96	52.4	1	4	112	0.00	29.823 
00:15	53.6	53.6	53.6	96	52.5	1	4	112	0.00	29.807 
00:20	53.8	53.8	53.8	96	52.7	1	6	112	0.01	29.807 
00:25	54.1	54.1	54.1	96	53.0	1	6	68	0.00	29.807 
00:30	54.4	54.4	54.4	96	53.3	2	6	90	0.00	29.801 
00:35	54.5	54.5	54.5	96	53.4	1	4	90	0.00	29.801 
00:40	54.7	54.7	54.7	96	53.6	1	4	90	0.00	29.801 
00:45	54.8	54.8	54.8	96	53.7	0	3	45	0.00	29.817 
00:50	54.8	54.8	54.8	96	53.7	0	2	45	0.01	29.817 
00:55	54.8	54.8	54.8	96	53.7	0	3	112	0.00	29.817 
01:00	55.0	55.0	55.0	96	53.9	0	2	112	0.00	29.798 
01:05	55.1	55.1	55.1	96	54.0	1	3	112	0.00	29.798 
01:10	55.3	55.3	55.3	96	54.2	1	3	112	0.01	29.798 
01:15	55.4	55.4	55.4	96	54.3	1	3	112	0.00	29.790 
01:20	55.6	55.6	55.6	96	54.5	1	4	112	0.00	29.790 
01:25	55.6	55.6	55.6	96	54.5	1	5	112	0.00	29.790 
01:30	55.7	55.7	55.7	96	54.6	1	4	112	0.01	29.786 
01:35	55.7	55.7	55.7	96	54.6	2	4	90	0.00	29.786 
01:40	55.6	55.6	55.6	96	54.5	2	7	90	0.00	29.786 
01:45	55.4	55.4	55.4	96	54.3	2	6	90	0.02	29.780 
01:50	55.4	55.4	55.4	96	54.3	2	4	90	0.01	29.780 
01:55	55.4	55.4	55.4	96	54.3	1	6	90	0.02	29.780 
02:00	55.6	55.6	55.6	96	54.5	1	4	112	0.00	29.775 
02:05	55.6	55.6	55.6	96	54.5	0	5	112	0.01	29.775 
02:10	55.7	55.7	55.7	96	54.6	0	5	112	0.00	29.775 
02:15	56.0	56.0	56.0	96	54.9	2	5	112	0.05	29.757 
02:20	56.3	56.3	56.3	96	55.2	2	4	112	0.05	29.757 
02:25	56.3	56.3	56.3	96	55.2	2	5	112	0.02	29.757 
02:30	56.3	56.3	56.3	96	55.2	2	7	112	0.02	29.740 
02:35	56.3	56.3	56.3	96	55.2	2	7	90	0.01	29.740 
02:40	56.3	56.3	56.3	96	55.2	0	2	90	0.01	29.740 
02:45	56.5	56.5	56.5	96	55.4	0	1	90	0.02	29.733 
02:50	56.5	56.5	56.5	96	55.4	0	3	90	0.04	29.733 
02:55	56.7	56.7	56.7	96	55.6	0	2	90	0.04	29.733 
03:00	56.9	56.9	56.9	96	55.8	1	6	90	0.02	29.709 
03:05	56.9	56.9	56.9	96	55.8	1	3	90	0.04	29.709 
03:10	57.3	57.3	57.3	96	56.2	1	2	90	0.01	29.709 
03:15	57.8	57.8	57.8	97	57.0	0	2	90	0.03	29.711 
03:20	58.0	58.0	58.0	97	57.2	0	2	90	0.03	29.711 
03:25	58.1	58.1	58.1	97	57.3	0	2	90	0.02	29.711 
03:30	58.1	58.1	58.1	97	57.3	0	1	90	0.01	29.709 
03:35	58.3	58.3	58.3	97	57.5	1	3	90	0.00	29.709 
03:40	58.3	58.3	58.3	96	57.2	0	1	90	0.01	29.709 
03:45	58.3	58.3	58.3	97	57.5	0	1	90	0.03	29.697 
03:50	58.4	58.4	58.4	97	57.5	0	1	90	0.03	29.697 
03:55	58.4	58.4	58.4	97	57.5	0	1	90	0.01	29.697 
04:00	58.9	58.9	58.9	97	58.0	0	2	90	0.01	29.692 
04:05	59.3	59.3	59.3	97	58.4	0	2	90	0.00	29.692 
04:10	59.3	59.3	59.3	97	58.4	0	1	90	0.00	29.692 
04:15	59.5	59.5	59.5	97	58.6	0	1	90	0.00	29.681 
04:20	59.8	59.8	59.8	97	58.9	0	2	90	0.00	29.681 
04:25	59.9	59.9	59.9	97	59.0	0	1	90	0.00	29.681 
04:30	60.1	60.1	60.1	97	59.2	0	1	90	0.00	29.673 
04:35	60.2	60.2	60.2	97	59.3	0	1	90	0.00	29.673 
04:40	60.4	60.4	60.4	97	59.5	0	1	90	0.00	29.673 
04:45	60.5	60.5	60.5	97	59.6	0	3	90	0.00	29.661 
04:50	60.7	60.7	60.7	97	59.8	0	1	90	0.00	29.661 
04:55	60.9	60.9	60.9	97	60.0	0	1	90	0.00	29.661 
05:00	60.9	60.9	60.9	97	60.0	0	0	---	0.00	29.656 
05:05	60.9	60.9	60.9	97	60.0	0	2	90	0.00	29.656 
05:10	60.7	60.7	60.7	97	59.8	0	2	90	0.02	29.656 
05:15	60.2	60.2	60.2	97	59.3	0	1	90	0.01	29.661 
05:20	59.9	59.9	59.9	97	59.0	0	2	90	0.01	29.661 
05:25	59.9	59.9	59.9	97	59.0	0	1	90	0.00	29.661 
05:30	59.9	59.9	59.9	97	59.0	0	1	90	0.00	29.659 
05:35	59.9	59.9	59.9	97	59.0	0	1	90	0.01	29.659 
05:40	59.9	59.9	59.9	97	59.0	0	1	90	0.00	29.659 
05:45	59.8	59.8	59.8	97	58.9	0	2	90	0.02	29.663 
05:50	59.6	59.6	59.6	97	58.7	0	2	90	0.02	29.663 
05:55	59.5	59.5	59.5	97	58.6	1	4	90	0.01	29.663 
06:00	59.2	59.2	59.2	97	58.3	0	1	90	0.00	29.669 
06:05	58.7	58.7	58.7	97	57.8	0	2	90	0.01	29.669 
06:10	58.4	58.4	58.4	96	57.3	0	3	90	0.01	29.669 
06:15	57.8	57.8	57.8	96	56.7	1	3	90	0.00	29.676 
06:20	57.5	57.5	57.5	96	56.4	0	2	90	0.00	29.676 
06:25	57.2	57.2	57.2	96	56.1	0	2	90	0.00	29.676 
06:30	56.7	56.7	56.7	96	55.6	1	4	90	0.00	29.681 
06:35	56.3	56.3	56.3	96	55.2	1	3	270	0.01	29.681 
06:40	56.0	56.0	56.0	96	54.9	0	2	270	0.00	29.681 
06:45	55.7	55.7	55.7	96	54.6	0	2	270	0.00	29.684 
06:50	55.4	55.4	55.4	96	54.3	1	2	270	0.00	29.684 
06:55	55.1	55.1	55.1	96	54.0	1	3	270	0.00	29.684 
07:00	54.8	54.8	54.8	96	53.7	0	1	270	0.00	29.689 
07:05	54.5	54.5	54.5	96	53.4	1	4	270	0.00	29.689 
07:10	54.2	54.2	54.2	96	53.1	1	3	270	0.00	29.689 
07:15	53.9	53.9	53.9	96	52.8	0	2	270	0.00	29.695 
07:20	53.6	53.6	53.6	96	52.5	1	3	270	0.00	29.695 
07:25	53.6	53.6	53.6	96	52.5	0	2	270	0.00	29.695 
07:30	53.5	53.5	53.5	96	52.4	0	2	270	0.00	29.699 
07:35	53.5	53.5	53.5	97	52.7	0	2	270	0.00	29.699 
07:40	53.3	53.3	53.3	96	52.2	0	2	270	0.00	29.699 
07:45	53.3	53.3	53.3	96	52.2	0	2	270	0.00	29.700 
07:50	53.3	53.3	53.3	97	52.5	0	3	270	0.00	29.700 
07:55	53.2	53.2	53.2	96	52.1	0	2	270	0.00	29.700 
08:00	53.1	53.1	53.1	96	52.0	0	3	270	0.00	29.701 
08:05	53.1	53.1	53.1	97	52.3	1	4	270	0.00	29.701 
08:10	53.1	53.1	53.1	97	52.3	0	1	270	0.00	29.701 
08:15	53.1	53.1	53.1	97	52.3	0	2	270	0.00	29.715 
08:20	53.1	53.1	53.1	97	52.3	0	2	270	0.00	29.715 
08:25	53.1	53.1	53.1	97	52.3	0	2	270	0.00	29.715 
08:30	52.9	52.9	52.9	96	51.8	0	1	270	0.00	29.722 
08:35	52.8	52.8	52.8	96	51.7	1	3	270	0.00	29.722 
08:40	52.6	52.6	52.6	96	51.5	0	3	270	0.00	29.722 
08:45	52.5	52.5	52.5	96	51.4	1	3	270	0.00	29.723 
08:50	52.5	52.5	52.5	96	51.4	0	3	270	0.00	29.723 
08:55	52.3	52.3	52.3	96	51.2	1	4	270	0.00	29.723 
09:00	52.0	52.0	52.0	96	50.9	1	3	270	0.00	29.733 
09:05	51.7	51.7	51.7	96	50.6	1	4	270	0.00	29.733 
09:10	51.7	51.7	51.7	96	50.6	0	2	270	0.00	29.733 
09:15	51.6	51.6	51.6	96	50.5	1	3	270	0.00	29.736 
09:20	51.3	51.3	51.3	96	50.2	0	2	270	0.00	29.736 
09:25	51.0	51.0	51.0	96	49.9	0	2	270	0.00	29.736 
09:30	50.8	50.8	50.8	96	49.7	1	3	270	0.00	29.741 
09:35	50.8	50.8	50.8	96	49.7	0	2	270	0.00	29.741 
09:40	51.0	51.0	51.0	96	49.9	0	2	270	0.00	29.741 
09:45	51.4	51.4	51.4	96	50.3	1	2	270	0.00	29.741 
09:50	51.7	51.7	51.7	96	50.6	1	3	270	0.00	29.741 
09:55	51.3	51.3	51.3	96	50.2	1	3	270	0.00	29.741 
10:00	50.8	50.8	50.8	96	49.7	1	2	270	0.00	29.747 
10:05	50.5	50.5	50.5	96	49.4	0	3	270	0.00	29.747 
10:10	50.5	50.5	50.5	96	49.4	1	3	270	0.00	29.747 
10:15	50.4	50.4	50.4	96	49.3	1	3	270	0.00	29.750 
10:20	50.2	50.2	50.2	96	49.1	1	3	270	0.00	29.750 
10:25	50.1	50.1	50.1	96	49.0	1	4	270	0.00	29.750 
10:30	50.1	50.1	50.1	96	49.0	1	4	270	0.00	29.759 
10:35	50.1	50.1	50.1	96	49.0	1	3	270	0.00	29.759 
10:40	49.9	49.9	49.9	96	48.8	1	3	270	0.00	29.759 
10:45	49.9	49.9	49.9	95	48.5	1	2	270	0.00	29.763 
10:50	49.9	49.9	49.9	95	48.5	0	2	270	0.00	29.763 
10:55	49.8	49.8	49.8	95	48.4	2	4	270	0.00	29.763 
11:00	49.8	49.8	49.8	95	48.4	1	3	270	0.00	29.770 
11:05	49.6	49.6	49.6	94	47.9	1	4	270	0.00	29.770 
11:10	49.6	49.6	49.6	94	47.9	1	3	270	0.00	29.770 
11:15	49.9	49.9	49.9	94	48.2	1	3	270	0.00	29.780 
11:20	50.4	50.4	50.4	94	48.7	1	4	270	0.00	29.780 
11:25	50.7	50.7	50.7	93	48.7	1	3	270	0.00	29.780 
11:30	50.7	50.7	50.7	92	48.5	2	6	270	0.00	29.781 
11:35	50.8	50.8	50.8	91	48.3	1	4	315	0.00	29.781 
11:40	51.1	51.1	51.1	90	48.3	1	2	315	0.00	29.781 
11:45	51.4	51.4	51.4	89	48.3	1	3	315	0.00	29.788 
11:50	51.6	51.6	51.6	88	48.2	1	4	292	0.00	29.788 
11:55	51.7	51.7	51.7	87	48.0	1	3	292	0.00	29.788 
12:00	52.0	52.0	52.0	86	47.9	1	5	292	0.00	29.791 
12:05	52.2	52.2	52.2	85	47.8	2	6	292	0.00	29.791 
12:10	52.2	52.2	52.2	83	47.2	2	6	292	0.00	29.791 
12:15	52.2	52.2	52.2	84	47.5	1	4	292	0.00	29.794 
12:20	52.5	52.5	52.5	83	47.5	1	3	292	0.00	29.794 
12:25	52.5	52.5	52.5	81	46.8	2	6	248	0.00	29.794 
12:30	52.2	52.2	52.2	81	46.5	2	5	270	0.00	29.798 
12:35	52.0	52.0	52.0	81	46.4	2	5	270	0.00	29.798 
12:40	51.9	51.9	51.9	81	46.3	2	5	292	0.00	29.798 
12:45	52.2	52.2	52.2	82	46.9	1	4	270	0.00	29.806 
12:50	52.5	52.5	52.5	81	46.8	1	4	270	0.00	29.806 
12:55	52.3	52.3	52.3	80	46.3	2	5	270	0.00	29.806 
13:00	52.3	52.3	52.3	81	46.6	1	4	270	0.00	29.810 
13:05	52.5	52.5	52.5	81	46.8	2	4	270	0.00	29.810 
13:10	52.8	52.8	52.8	81	47.1	1	5	270	0.00	29.810 
13:15	52.5	52.5	52.5	80	46.5	2	5	270	0.00	29.816 
13:20	52.3	52.3	52.3	81	46.6	2	4	270	0.00	29.816 
13:25	52.3	52.3	52.3	81	46.6	1	2	270	0.00	29.816 
13:30	51.9	51.9	51.9	82	46.6	2	7	270	0.00	29.825 
13:35	52.0	52.0	52.0	84	47.3	2	4	292	0.00	29.825 
13:40	52.6	52.6	52.6	81	46.9	2	6	270	0.00	29.825 
13:45	52.3	52.3	52.3	80	46.3	2	5	292	0.00	29.827 
13:50	51.7	51.7	51.7	83	46.7	2	4	292	0.00	29.827 
13:55	51.3	51.3	51.3	84	46.6	3	5	270	0.00	29.827 
14:00	50.8	50.8	50.8	86	46.8	3	6	270	0.00	29.840 
14:05	50.5	50.5	50.5	87	46.8	1	3	270	0.00	29.840 
14:10	50.4	50.4	50.4	88	47.0	3	6	270	0.00	29.840 
14:15	50.2	50.2	50.2	88	46.8	3	7	292	0.00	29.844 
14:20	50.2	50.2	50.2	88	46.8	2	4	270	0.00	29.844 
14:25	50.5	50.5	50.5	88	47.1	2	4	270	0.00	29.844 
14:30	50.7	50.7	50.7	88	47.3	1	4	270	0.00	29.848 
14:35	50.4	50.4	50.4	87	46.7	3	7	270	0.00	29.848 
14:40	50.1	50.1	50.1	87	46.4	2	6	292	0.00	29.848 
14:45	49.5	48.3	49.5	86	45.5	4	10	270	0.00	29.860 
14:50	49.2	47.9	49.2	85	44.9	4	7	315	0.00	29.860 
14:55	49.2	49.2	49.2	85	44.9	3	5	292	0.00	29.860 
15:00	49.2	49.2	49.2	85	44.9	2	5	315	0.00	29.868 
15:05	49.4	49.4	49.4	84	44.8	2	4	292	0.00	29.868 
15:10	49.1	49.1	49.1	86	45.1	2	4	292	0.00	29.868 
15:15	48.9	48.9	48.9	87	45.2	3	6	270	0.00	29.873 
15:20	48.9	48.9	48.9	88	45.5	3	7	270	0.00	29.873 
15:25	48.6	48.6	48.6	85	44.3	3	7	292	0.00	29.873 
15:30	48.2	46.8	48.2	84	43.6	4	7	270	0.00	29.885 
15:35	47.6	46.1	47.6	83	42.7	4	7	270	0.00	29.885 
15:40	47.3	47.3	47.3	83	42.4	3	6	270	0.00	29.885 
15:45	47.3	45.8	47.3	83	42.4	4	9	270	0.00	29.890 
15:50	47.0	45.4	47.0	81	41.5	4	9	315	0.00	29.890 
15:55	46.7	45.1	46.7	81	41.2	4	8	315	0.00	29.890 
16:00	47.0	47.0	47.0	81	41.5	3	7	292	0.00	29.895 
16:05	46.8	46.8	46.8	80	41.0	3	8	270	0.00	29.895 
16:10	46.4	44.7	46.4	80	40.6	4	7	270	0.00	29.895 
16:15	46.1	46.1	46.1	81	40.6	3	6	292	0.00	29.904 
16:20	46.0	46.0	46.0	81	40.5	3	7	270	0.00	29.904 
16:25	45.8	44.0	45.8	80	40.0	4	6	292	0.00	29.904 
16:30	45.4	45.4	45.4	80	39.6	3	7	338	0.00	29.916 
16:35	45.4	45.4	45.4	80	39.6	3	6	292	0.00	29.916 
16:40	45.2	43.3	45.2	79	39.1	4	9	270	0.00	29.916 
16:45	45.4	45.4	45.4	79	39.3	3	10	292	0.00	29.921 
16:50	45.5	45.5	45.5	78	39.0	3	5	292	0.00	29.921 
16:55	45.5	43.7	45.5	77	38.7	4	7	270	0.00	29.921 
17:00	45.5	43.7	45.5	76	38.4	4	7	270	0.00	29.931 
17:05	45.4	45.4	45.4	77	38.6	3	7	270	0.00	29.931 
17:10	45.1	45.1	45.1	77	38.3	3	7	270	0.00	29.931 
17:15	44.9	44.9	44.9	77	38.1	3	7	315	0.00	29.940 
17:20	45.1	45.1	45.1	78	38.7	2	9	338	0.00	29.940 
17:25	45.2	45.2	45.2	77	38.4	3	5	270	0.00	29.940 
17:30	45.2	43.3	45.2	76	38.1	4	6	270	0.00	29.947 
17:35	44.9	43.0	44.9	76	37.8	4	10	270	0.00	29.947 
17:40	44.8	42.9	44.8	77	38.0	4	8	270	0.00	29.947 
17:45	44.6	44.6	44.6	77	37.8	3	7	270	0.00	29.955 
17:50	44.8	44.8	44.8	78	38.4	2	5	270	0.00	29.955 
17:55	44.8	44.8	44.8	77	38.0	2	5	270	0.00	29.955 
18:00	45.2	45.2	45.2	77	38.4	2	6	338	0.00	29.958 
18:05	45.1	43.2	45.1	75	37.7	4	6	292	0.00	29.958 
18:10	44.9	43.0	44.9	74	37.1	4	7	270	0.00	29.958 
18:15	44.8	42.9	44.8	74	37.0	4	7	315	0.00	29.965 
18:20	44.8	44.8	44.8	74	37.0	3	10	315	0.00	29.965 
18:25	44.9	44.9	44.9	75	37.5	2	5	292	0.00	29.965 
18:30	44.8	44.8	44.8	75	37.4	3	6	338	0.00	29.972 
18:35	44.8	44.8	44.8	75	37.4	3	6	292	0.00	29.972 
18:40	44.9	44.9	44.9	75	37.5	2	4	270	0.00	29.972 
18:45	44.9	44.9	44.9	75	37.5	3	6	270	0.00	29.975 
18:50	45.1	45.1	45.1	74	37.3	3	5	292	0.00	29.975 
18:55	45.1	45.1	45.1	74	37.3	2	4	315	0.00	29.975 
19:00	45.1	45.1	45.1	73	37.0	3	5	270	0.00	29.978 
19:05	45.2	45.2	45.2	73	37.1	3	7	270	0.00	29.978 
19:10	45.4	45.4	45.4	71	36.6	3	9	270	0.00	29.978 
19:15	45.7	45.7	45.7	70	36.5	3	6	270	0.00	29.989 
19:20	45.7	45.7	45.7	69	36.1	3	6	315	0.00	29.989 
19:25	46.0	44.2	46.0	66	35.3	4	9	292	0.00	29.989 
19:30	45.8	43.3	45.8	65	34.7	5	9	270	0.00	29.996 
19:35	45.8	44.0	45.8	65	34.7	4	6	292	0.00	29.996 
19:40	45.7	45.7	45.7	65	34.6	3	5	270	0.00	29.996 
19:45	45.7	43.9	45.7	65	34.6	4	8	292	0.00	30.003 
19:50	45.7	45.7	45.7	65	34.6	3	5	292	0.00	30.003 
19:55	45.7	45.7	45.7	64	34.2	3	9	315	0.00	30.003 
20:00	45.5	45.5	45.5	65	34.4	3	5	338	0.00	30.007 
20:05	45.5	45.5	45.5	65	34.4	2	5	315	0.00	30.007 
20:10	45.4	45.4	45.4	65	34.3	1	4	292	0.00	30.007 
20:15	45.4	45.4	45.4	65	34.3	1	4	292	0.00	30.011 
20:20	45.2	45.2	45.2	66	34.5	1	3	292	0.00	30.011 
20:25	45.2	45.2	45.2	67	34.9	0	2	292	0.00	30.011 
20:30	45.1	45.1	45.1	67	34.8	0	2	292	0.00	30.013 
20:35	44.9	44.9	44.9	68	35.0	0	2	292	0.00	30.013 
20:40	44.8	44.8	44.8	68	34.9	0	2	292	0.00	30.013 
20:45	44.6	44.6	44.6	69	35.1	0	3	292	0.00	30.024 
20:50	44.5	44.5	44.5	69	35.0	0	1	292	0.00	30.024 
20:55	44.2	44.2	44.2	69	34.7	0	1	292	0.00	30.024 
21:00	44.1	44.1	44.1	70	35.0	0	2	292	0.00	30.025 
21:05	43.9	43.9	43.9	71	35.1	0	1	292	0.00	30.025 
21:10	43.8	43.8	43.8	72	35.4	0	1	292	0.00	30.025 
21:15	43.5	43.5	43.5	72	35.1	0	0	---	0.00	30.027 
21:20	43.3	43.3	43.3	73	35.2	0	0	---	0.00	30.027 
21:25	43.2	43.2	43.2	73	35.1	0	0	---	0.00	30.027 
21:30	43.1	43.1	43.1	74	35.4	0	0	---	0.00	30.029 
21:35	42.8	42.8	42.8	75	35.4	0	0	---	0.00	30.029 
21:40	42.5	42.5	42.5	76	35.5	0	0	---	0.00	30.029 
21:45	42.2	42.2	42.2	76	35.2	0	0	---	0.00	30.031 
21:50	41.9	41.9	41.9	77	35.2	0	0	---	0.00	30.031 
21:55	41.8	41.8	41.8	77	35.1	0	0	---	0.00	30.031 
22:00	41.5	41.5	41.5	77	34.8	0	0	---	0.00	30.036 
22:05	41.2	41.2	41.2	78	34.9	0	0	---	0.00	30.036 
22:10	40.9	40.9	40.9	79	34.9	0	0	---	0.00	30.036 
22:15	40.8	40.8	40.8	80	35.1	0	0	---	0.00	30.038 
22:20	40.5	40.5	40.5	81	35.1	0	0	---	0.00	30.038 
22:25	40.3	40.3	40.3	81	34.9	0	0	---	0.00	30.038 
22:30	40.1	40.1	40.1	82	35.1	0	0	---	0.00	30.040 
22:35	39.9	39.9	39.9	83	35.2	0	0	---	0.00	30.040 
22:40	39.8	39.8	39.8	83	35.1	0	0	---	0.00	30.040 
22:45	39.6	39.6	39.6	83	34.9	0	0	---	0.00	30.041 
22:50	39.5	39.5	39.5	84	35.1	0	0	---	0.00	30.041 
22:55	39.5	39.5	39.5	84	35.1	0	0	---	0.00	30.041 
23:00	39.3	39.3	39.3	84	34.9	0	0	---	0.00	30.045 
23:05	39.3	39.3	39.3	84	34.9	0	0	---	0.00	30.045 
23:10	39.2	39.2	39.2	84	34.8	0	0	---	0.00	30.045 
23:15	39.2	39.2	39.2	84	34.8	0	0	---	0.00	30.043 
23:20	39.1	39.1	39.1	84	34.7	0	0	---	0.00	30.043 
23:25	39.1	39.1	39.1	84	34.7	0	0	---	0.00	30.043 
23:30	38.9	38.9	38.9	84	34.5	0	0	---	0.00	30.040 
23:35	38.8	38.8	38.8	85	34.7	0	0	---	0.00	30.040 
23:40	38.6	38.6	38.6	85	34.5	0	0	---	0.00	30.040 
23:45	38.5	38.5	38.5	85	34.4	0	0	---	0.00	30.033 
23:50	38.3	38.3	38.3	86	34.5	0	0	---	0.00	30.033 
23:55	38.3	38.3	38.3	86	34.5	0	0	---	0.00	30.033 

CoCoRaHS
IN-AL-39
A2 Web Hosting
Creative Commons License
GoDaddy
search engine by freefind advanced

loaded 2018-11-21 00:56:56 • last modified 2010-11-18 10:43:29
Privacy PolicyDisclaimer
• wx.awcolley.com is powered by PmWiki v.2002016 •
• all content (unless otherwise noted) © 2018 A W Colley